Relevés horaires Schaffen (Belgique)


Relevés horaires à Schaffen - Mardi 01 Août 2017
Heure UTC1 Température [°C] Vent [km/h] Hum. [%] Pres.4 [hPa] Visi. [Km] Nébu. [octa] Préc.5 [mm] Cond.
2m. Res. Ros. Dir.2 Vit. Moy. Raf.3
23:00 15.3 15.3 14.3 NNO 1.9 -- 3.7 94 1017.2(0.2/3h) 9 -- -- --
22:00 16.0 16.0 14.3 NNO 3.7 -- 3.7 90 1017.3(0.7/3h) 13 -- -- --
21:00 17.1 17.1 14.5 SSE 3.7 -- 5.6 85 1017.1(1.1/3h) 20 -- -- --
20:00 18.1 18.1 14.4 NNO 1.9 -- 3.7 79 1017(1.0/3h) 20 -- -- --
19:00 19.1 19.1 14.0 SSE 3.7 -- 5.6 72 1016.6(0.8/3h) 20 -- -- --
18:00 21.0 21.0 13.6 SSE 3.7 -- 7.4 63 1015.8(0.2/3h) 20 -- -- NA
17:00 21.1 21.1 14.4 SSE 3.7 -- 7.4 66 1015.7(0.0/3h) 20 -- -- --
16:00 21.2 21.2 14.0 SSE 3.7 -- 7.4 63 1015.7(-0.1/3h) 20 -- -- NA
15:00 22.0 22.0 12.6 NNO 1.9 -- 7.4 55 1015.6(0.0/3h) 20 -- -- --
14:00 22.1 22.1 13.0 NNO 1.9 -- 5.6 56 1015.7(-0.5/3h) 20 -- -- --
13:00 22.4 22.4 12.1 NNO 1.9 -- 7.4 52 1015.7(0.0/3h) 20 -- -- --
12:00 21.0 21.0 12.7 NNO 1.9 -- 7.4 59 1015.6(0.0/3h) 20 -- -- --
11:00 20.3 20.3 11.6 NNO 1.9 -- 7.4 57 1016.2(0.7/3h) 20 -- -- --
10:00 20.4 20.4 12.5 N 5.6 -- 7.4 60 1015.7(-0.2/3h) 20 -- -- --
09:00 18.8 18.8 14.3 NNO 1.9 5.6 7.4 75 1015.6(0.5/3h) 16 -- -- --
08:00 17.0 17.0 13.7 NNO 1.9 -- 3.7 81 1015.6(1.4/3h) 20 -- -- --
07:00 16.5 16.5 13.3 NNO 1.9 -- 7.4 81 1016(2.0/3h) 20 -- -- --
06:00 15.7 15.7 13.4 ONO 5.6 -- 7.4 86 1015.1(1.0/3h) 16 -- -- --
05:00 15.1 15.1 13.5 ONO 3.7 -- 5.6 90 1014.2(0.0/3h) 16 -- -- --
04:00 14.5 14.5 13.4 NO 5.6 -- 5.6 93 1013.8(-0.6/3h) 14 -- -- --
03:00 15.1 15.1 13.5 NO 5.6 -- 7.4 90 1014(-0.2/3h) 16 -- -- --
02:00 15.1 15.1 13.2 NNO 3.7 -- 7.4 88 1014.2(-0.2/3h) 19 -- -- --
01:00 15.5 15.5 13.4 NO 3.7 -- 7.4 87 1014.6(0.0/3h) 20 -- -- --
00:00 16.6 16.6 13.7 NO 5.6 -- 7.4 83 1014.2(0.1/3h) 20 -- -- --

1 Coordinated Universal Time. Actuellement il est 05:00 locale et 04:00 UTC.

2 Le vent souffle depuis la direction indiquée vers la direction oposée.

3 Les rafales max. sont disponible 40 min après l'heure du relevé.

4 Pour les stations d'altitude (plus de 600m) le géopotentiel du niveau le plus proche de la pression obligatoire est indiqué.

5 Les stations disposant d'un diffuseur peuvent indiquer "trace". Cela signifie que des précipitations ont touchés le sol mais que la quantité est inférieure à 0.1 mm.

Récapitulatif de la journée
Température [°C] Vent [km/h] Ensoleillement4 [h] Precipitations totale5 [mm] Pression [Hpa]
Min1 Max.2 Moy.3 Max. Min Max.
14.3 22.9 5.6 7.4 0 h 0 min 0 1013.8 1017.3

1 Température minimale relevée entre 18:00 UTC la veille et 18:00 UTC le jour donné.

2 Température maximale relevée entre 06:00 UTC le jour donné et 06:00 UTC le lendemain.

3 Vent moyen de la journée basé sur les relevés horaires.

4 Ensoleillement en heures relevé entre 06:00 UTC la veille et 06:00 UTC le jour donné.

5 Précipitations totales tombées entre 06:00 UTC la jour donné et 06:00 UTC le lendemain.

Graphiques horaires